sensor_id;sensor_type;location;lat;lon;timestamp;temperature;humidity
21712;DHT22;11017;53.552;9.910;2023-03-12T00:02:12;2.80;99.90
21712;DHT22;11017;53.552;9.910;2023-03-12T00:04:39;2.90;99.90
21712;DHT22;11017;53.552;9.910;2023-03-12T00:07:06;2.90;99.90
21712;DHT22;11017;53.552;9.910;2023-03-12T00:09:34;2.80;99.90
21712;DHT22;11017;53.552;9.910;2023-03-12T00:12:04;2.90;99.90
21712;DHT22;11017;53.552;9.910;2023-03-12T00:14:32;3.10;99.90
21712;DHT22;11017;53.552;9.910;2023-03-12T00:16:59;3.10;99.90
21712;DHT22;11017;53.552;9.910;2023-03-12T00:19:26;3.10;99.90
21712;DHT22;11017;53.552;9.910;2023-03-12T00:21:53;3.00;99.90
21712;DHT22;11017;53.552;9.910;2023-03-12T00:24:20;3.00;99.90
21712;DHT22;11017;53.552;9.910;2023-03-12T00:26:47;3.00;99.90
21712;DHT22;11017;53.552;9.910;2023-03-12T00:29:15;2.90;99.90
21712;DHT22;11017;53.552;9.910;2023-03-12T00:31:42;3.00;99.90
21712;DHT22;11017;53.552;9.910;2023-03-12T00:34:09;2.90;99.90
21712;DHT22;11017;53.552;9.910;2023-03-12T00:36:36;3.10;99.90
21712;DHT22;11017;53.552;9.910;2023-03-12T00:39:05;3.10;99.90
21712;DHT22;11017;53.552;9.910;2023-03-12T00:41:32;3.20;99.90
21712;DHT22;11017;53.552;9.910;2023-03-12T00:43:59;3.10;99.90
21712;DHT22;11017;53.552;9.910;2023-03-12T00:46:27;2.90;99.90
21712;DHT22;11017;53.552;9.910;2023-03-12T00:48:54;3.00;99.90
21712;DHT22;11017;53.552;9.910;2023-03-12T00:51:21;3.00;99.90
21712;DHT22;11017;53.552;9.910;2023-03-12T00:53:48;3.10;99.90
21712;DHT22;11017;53.552;9.910;2023-03-12T00:56:15;3.10;99.90
21712;DHT22;11017;53.552;9.910;2023-03-12T00:58:42;3.10;99.90
21712;DHT22;11017;53.552;9.910;2023-03-12T01:01:10;3.10;99.90
21712;DHT22;11017;53.552;9.910;2023-03-12T01:03:38;2.90;99.90
21712;DHT22;11017;53.552;9.910;2023-03-12T01:06:05;3.00;99.90
21712;DHT22;11017;53.552;9.910;2023-03-12T01:08:32;3.20;99.90
21712;DHT22;11017;53.552;9.910;2023-03-12T01:10:59;3.10;99.90
21712;DHT22;11017;53.552;9.910;2023-03-12T01:13:26;3.20;99.90
21712;DHT22;11017;53.552;9.910;2023-03-12T01:15:53;3.10;99.90
21712;DHT22;11017;53.552;9.910;2023-03-12T01:18:21;3.10;99.90
21712;DHT22;11017;53.552;9.910;2023-03-12T01:20:49;3.00;99.90
21712;DHT22;11017;53.552;9.910;2023-03-12T01:23:16;3.10;99.90
21712;DHT22;11017;53.552;9.910;2023-03-12T01:25:43;2.80;99.90
21712;DHT22;11017;53.552;9.910;2023-03-12T01:28:12;2.90;99.90
21712;DHT22;11017;53.552;9.910;2023-03-12T01:30:38;2.90;99.90
21712;DHT22;11017;53.552;9.910;2023-03-12T01:33:05;2.90;99.90
21712;DHT22;11017;53.552;9.910;2023-03-12T01:35:35;2.80;99.90
21712;DHT22;11017;53.552;9.910;2023-03-12T01:38:04;2.80;99.90
21712;DHT22;11017;53.552;9.910;2023-03-12T01:40:32;2.60;99.90
21712;DHT22;11017;53.552;9.910;2023-03-12T01:43:21;2.70;99.90
21712;DHT22;11017;53.552;9.910;2023-03-12T01:46:15;2.70;99.90
21712;DHT22;11017;53.552;9.910;2023-03-12T01:48:48;2.80;99.90
21712;DHT22;11017;53.552;9.910;2023-03-12T01:51:17;2.90;99.90
21712;DHT22;11017;53.552;9.910;2023-03-12T01:53:48;3.10;99.90
21712;DHT22;11017;53.552;9.910;2023-03-12T01:56:17;3.00;99.90
21712;DHT22;11017;53.552;9.910;2023-03-12T01:58:48;3.00;99.90
21712;DHT22;11017;53.552;9.910;2023-03-12T02:01:17;3.00;99.90
21712;DHT22;11017;53.552;9.910;2023-03-12T02:03:46;3.10;99.90
21712;DHT22;11017;53.552;9.910;2023-03-12T02:06:14;3.00;99.90
21712;DHT22;11017;53.552;9.910;2023-03-12T02:08:45;2.80;99.90
21712;DHT22;11017;53.552;9.910;2023-03-12T02:11:13;2.80;99.90
21712;DHT22;11017;53.552;9.910;2023-03-12T02:13:40;2.80;99.90
21712;DHT22;11017;53.552;9.910;2023-03-12T02:16:08;2.80;99.90
21712;DHT22;11017;53.552;9.910;2023-03-12T02:18:35;2.80;99.90
21712;DHT22;11017;53.552;9.910;2023-03-12T02:21:09;2.80;99.90
21712;DHT22;11017;53.552;9.910;2023-03-12T02:23:43;2.60;99.90
21712;DHT22;11017;53.552;9.910;2023-03-12T02:26:14;2.60;99.90
21712;DHT22;11017;53.552;9.910;2023-03-12T02:28:42;2.80;99.90
21712;DHT22;11017;53.552;9.910;2023-03-12T02:31:15;3.10;99.90
21712;DHT22;11017;53.552;9.910;2023-03-12T02:33:43;3.30;99.90
21712;DHT22;11017;53.552;9.910;2023-03-12T02:36:10;3.20;99.90
21712;DHT22;11017;53.552;9.910;2023-03-12T02:38:40;3.20;99.90
21712;DHT22;11017;53.552;9.910;2023-03-12T02:41:16;3.40;99.90
21712;DHT22;11017;53.552;9.910;2023-03-12T02:43:45;3.50;99.90
21712;DHT22;11017;53.552;9.910;2023-03-12T02:46:13;3.50;99.90
21712;DHT22;11017;53.552;9.910;2023-03-12T02:48:40;3.10;99.90
21712;DHT22;11017;53.552;9.910;2023-03-12T02:51:07;2.80;99.90
21712;DHT22;11017;53.552;9.910;2023-03-12T02:53:34;2.80;99.90
21712;DHT22;11017;53.552;9.910;2023-03-12T02:56:01;2.60;99.90
21712;DHT22;11017;53.552;9.910;2023-03-12T02:58:29;2.60;99.90
21712;DHT22;11017;53.552;9.910;2023-03-12T03:00:56;2.80;99.90
21712;DHT22;11017;53.552;9.910;2023-03-12T03:03:23;2.90;99.90
21712;DHT22;11017;53.552;9.910;2023-03-12T03:05:50;2.90;99.90
21712;DHT22;11017;53.552;9.910;2023-03-12T03:08:17;2.80;99.90
21712;DHT22;11017;53.552;9.910;2023-03-12T03:10:44;2.90;99.90
21712;DHT22;11017;53.552;9.910;2023-03-12T03:13:11;3.00;99.90
21712;DHT22;11017;53.552;9.910;2023-03-12T03:15:39;2.90;99.90
21712;DHT22;11017;53.552;9.910;2023-03-12T03:18:06;3.00;99.90
21712;DHT22;11017;53.552;9.910;2023-03-12T03:20:33;3.00;99.90
21712;DHT22;11017;53.552;9.910;2023-03-12T03:23:00;3.00;99.90
21712;DHT22;11017;53.552;9.910;2023-03-12T03:25:27;2.90;99.90
21712;DHT22;11017;53.552;9.910;2023-03-12T03:27:54;3.00;99.90
21712;DHT22;11017;53.552;9.910;2023-03-12T03:30:21;3.00;99.90
21712;DHT22;11017;53.552;9.910;2023-03-12T03:32:49;3.00;99.90
21712;DHT22;11017;53.552;9.910;2023-03-12T03:35:16;2.80;99.90
21712;DHT22;11017;53.552;9.910;2023-03-12T03:37:43;2.70;99.90
21712;DHT22;11017;53.552;9.910;2023-03-12T03:40:11;2.70;99.90
21712;DHT22;11017;53.552;9.910;2023-03-12T03:42:38;2.70;99.90
21712;DHT22;11017;53.552;9.910;2023-03-12T03:45:07;2.60;99.90
21712;DHT22;11017;53.552;9.910;2023-03-12T03:47:35;2.50;99.90
21712;DHT22;11017;53.552;9.910;2023-03-12T03:50:04;2.70;99.90
21712;DHT22;11017;53.552;9.910;2023-03-12T03:52:32;2.70;99.90
21712;DHT22;11017;53.552;9.910;2023-03-12T03:54:58;2.80;99.90
21712;DHT22;11017;53.552;9.910;2023-03-12T03:57:26;2.80;99.90
21712;DHT22;11017;53.552;9.910;2023-03-12T03:59:53;2.70;99.90
21712;DHT22;11017;53.552;9.910;2023-03-12T04:02:20;2.70;99.90
21712;DHT22;11017;53.552;9.910;2023-03-12T04:04:47;2.60;99.90
21712;DHT22;11017;53.552;9.910;2023-03-12T04:07:16;2.60;99.90
21712;DHT22;11017;53.552;9.910;2023-03-12T04:09:43;2.70;99.90
21712;DHT22;11017;53.552;9.910;2023-03-12T04:12:10;2.60;99.90
21712;DHT22;11017;53.552;9.910;2023-03-12T04:14:39;2.60;99.90
21712;DHT22;11017;53.552;9.910;2023-03-12T04:17:06;2.50;99.90
21712;DHT22;11017;53.552;9.910;2023-03-12T04:19:33;2.40;99.90
21712;DHT22;11017;53.552;9.910;2023-03-12T04:22:00;2.30;99.90
21712;DHT22;11017;53.552;9.910;2023-03-12T04:24:29;2.30;99.90
21712;DHT22;11017;53.552;9.910;2023-03-12T04:26:56;2.20;99.90
21712;DHT22;11017;53.552;9.910;2023-03-12T04:29:23;2.30;99.90
21712;DHT22;11017;53.552;9.910;2023-03-12T04:31:50;2.40;99.90
21712;DHT22;11017;53.552;9.910;2023-03-12T04:34:18;2.50;99.90
21712;DHT22;11017;53.552;9.910;2023-03-12T04:36:45;2.40;99.90
21712;DHT22;11017;53.552;9.910;2023-03-12T04:39:12;2.50;99.90
21712;DHT22;11017;53.552;9.910;2023-03-12T04:41:41;2.50;99.90
21712;DHT22;11017;53.552;9.910;2023-03-12T04:44:08;2.40;99.90
21712;DHT22;11017;53.552;9.910;2023-03-12T04:46:35;2.40;99.90
21712;DHT22;11017;53.552;9.910;2023-03-12T04:49:02;2.40;99.90
21712;DHT22;11017;53.552;9.910;2023-03-12T04:51:29;2.50;99.90
21712;DHT22;11017;53.552;9.910;2023-03-12T04:53:57;2.50;99.90
21712;DHT22;11017;53.552;9.910;2023-03-12T04:56:24;2.40;99.90
21712;DHT22;11017;53.552;9.910;2023-03-12T04:58:52;2.40;99.90
21712;DHT22;11017;53.552;9.910;2023-03-12T05:01:23;2.50;99.90
21712;DHT22;11017;53.552;9.910;2023-03-12T05:03:50;2.60;99.90
21712;DHT22;11017;53.552;9.910;2023-03-12T05:06:17;2.60;99.90
21712;DHT22;11017;53.552;9.910;2023-03-12T05:08:44;2.50;99.90
21712;DHT22;11017;53.552;9.910;2023-03-12T05:11:12;2.50;99.90
21712;DHT22;11017;53.552;9.910;2023-03-12T05:13:39;2.60;99.90
21712;DHT22;11017;53.552;9.910;2023-03-12T05:16:08;2.50;99.90
21712;DHT22;11017;53.552;9.910;2023-03-12T05:18:35;2.50;99.90
21712;DHT22;11017;53.552;9.910;2023-03-12T05:21:04;2.50;99.90
21712;DHT22;11017;53.552;9.910;2023-03-12T05:23:32;2.50;99.90
21712;DHT22;11017;53.552;9.910;2023-03-12T05:25:59;2.40;99.90
21712;DHT22;11017;53.552;9.910;2023-03-12T05:28:27;2.50;99.90
21712;DHT22;11017;53.552;9.910;2023-03-12T05:30:54;2.60;99.90
21712;DHT22;11017;53.552;9.910;2023-03-12T05:33:23;2.50;99.90
21712;DHT22;11017;53.552;9.910;2023-03-12T05:35:50;2.40;99.90
21712;DHT22;11017;53.552;9.910;2023-03-12T05:38:17;2.30;99.90
21712;DHT22;11017;53.552;9.910;2023-03-12T05:40:50;2.20;99.90
21712;DHT22;11017;53.552;9.910;2023-03-12T05:43:17;2.40;99.90
21712;DHT22;11017;53.552;9.910;2023-03-12T05:45:44;2.60;99.90
21712;DHT22;11017;53.552;9.910;2023-03-12T05:48:11;2.60;99.90
21712;DHT22;11017;53.552;9.910;2023-03-12T05:50:40;2.80;99.90
21712;DHT22;11017;53.552;9.910;2023-03-12T05:53:06;2.60;99.90
21712;DHT22;11017;53.552;9.910;2023-03-12T05:55:34;2.60;99.90
21712;DHT22;11017;53.552;9.910;2023-03-12T05:58:01;2.60;99.90
21712;DHT22;11017;53.552;9.910;2023-03-12T06:00:28;2.50;99.90
21712;DHT22;11017;53.552;9.910;2023-03-12T06:02:55;2.70;99.90
21712;DHT22;11017;53.552;9.910;2023-03-12T06:05:22;2.50;99.90
21712;DHT22;11017;53.552;9.910;2023-03-12T06:07:50;2.30;99.90
21712;DHT22;11017;53.552;9.910;2023-03-12T06:10:17;2.30;99.90
21712;DHT22;11017;53.552;9.910;2023-03-12T06:12:44;2.40;99.90
21712;DHT22;11017;53.552;9.910;2023-03-12T06:15:11;2.60;99.90
21712;DHT22;11017;53.552;9.910;2023-03-12T06:17:38;2.90;99.90
21712;DHT22;11017;53.552;9.910;2023-03-12T06:20:06;3.00;99.90
21712;DHT22;11017;53.552;9.910;2023-03-12T06:22:34;3.00;99.90
21712;DHT22;11017;53.552;9.910;2023-03-12T06:25:03;3.00;99.90
21712;DHT22;11017;53.552;9.910;2023-03-12T06:27:30;3.00;99.90
21712;DHT22;11017;53.552;9.910;2023-03-12T06:29:58;3.00;99.90
21712;DHT22;11017;53.552;9.910;2023-03-12T06:32:25;3.20;99.90
21712;DHT22;11017;53.552;9.910;2023-03-12T06:34:51;3.20;99.90
21712;DHT22;11017;53.552;9.910;2023-03-12T06:37:18;3.30;99.90
21712;DHT22;11017;53.552;9.910;2023-03-12T06:39:45;3.50;99.90
21712;DHT22;11017;53.552;9.910;2023-03-12T06:42:13;3.50;99.90
21712;DHT22;11017;53.552;9.910;2023-03-12T06:44:42;3.50;99.90
21712;DHT22;11017;53.552;9.910;2023-03-12T06:47:09;3.60;99.90
21712;DHT22;11017;53.552;9.910;2023-03-12T06:49:36;3.60;99.90
21712;DHT22;11017;53.552;9.910;2023-03-12T06:52:04;3.50;99.90
21712;DHT22;11017;53.552;9.910;2023-03-12T06:54:31;3.40;99.90
21712;DHT22;11017;53.552;9.910;2023-03-12T06:56:58;3.40;99.90
21712;DHT22;11017;53.552;9.910;2023-03-12T06:59:26;3.40;99.90
21712;DHT22;11017;53.552;9.910;2023-03-12T07:01:53;3.60;99.90
21712;DHT22;11017;53.552;9.910;2023-03-12T07:04:21;3.70;99.90
21712;DHT22;11017;53.552;9.910;2023-03-12T07:06:48;3.60;99.90
21712;DHT22;11017;53.552;9.910;2023-03-12T07:09:16;3.50;99.90
21712;DHT22;11017;53.552;9.910;2023-03-12T07:11:43;3.50;99.90
21712;DHT22;11017;53.552;9.910;2023-03-12T07:14:10;3.70;99.90
21712;DHT22;11017;53.552;9.910;2023-03-12T07:16:38;3.90;99.90
21712;DHT22;11017;53.552;9.910;2023-03-12T07:19:05;3.80;99.90
21712;DHT22;11017;53.552;9.910;2023-03-12T07:21:32;3.70;99.90
21712;DHT22;11017;53.552;9.910;2023-03-12T07:23:59;3.70;99.90
21712;DHT22;11017;53.552;9.910;2023-03-12T07:26:32;3.70;99.90
21712;DHT22;11017;53.552;9.910;2023-03-12T07:28:59;3.60;99.90
21712;DHT22;11017;53.552;9.910;2023-03-12T07:31:26;3.30;99.90
21712;DHT22;11017;53.552;9.910;2023-03-12T07:33:55;3.30;99.90
21712;DHT22;11017;53.552;9.910;2023-03-12T07:36:22;3.40;99.90
21712;DHT22;11017;53.552;9.910;2023-03-12T07:38:49;3.40;99.90
21712;DHT22;11017;53.552;9.910;2023-03-12T07:41:16;3.40;99.90
21712;DHT22;11017;53.552;9.910;2023-03-12T07:43:43;3.50;99.90
21712;DHT22;11017;53.552;9.910;2023-03-12T07:46:10;3.50;99.90
21712;DHT22;11017;53.552;9.910;2023-03-12T07:48:37;3.60;99.90
21712;DHT22;11017;53.552;9.910;2023-03-12T07:51:06;3.50;99.90
21712;DHT22;11017;53.552;9.910;2023-03-12T07:53:33;3.50;99.90
21712;DHT22;11017;53.552;9.910;2023-03-12T07:55:59;3.70;99.90
21712;DHT22;11017;53.552;9.910;2023-03-12T07:58:26;3.80;99.90
21712;DHT22;11017;53.552;9.910;2023-03-12T08:00:54;4.00;99.90
21712;DHT22;11017;53.552;9.910;2023-03-12T08:03:21;3.90;99.90
21712;DHT22;11017;53.552;9.910;2023-03-12T08:05:56;4.30;99.90
21712;DHT22;11017;53.552;9.910;2023-03-12T08:08:24;4.70;99.90
21712;DHT22;11017;53.552;9.910;2023-03-12T08:10:51;5.00;99.90
21712;DHT22;11017;53.552;9.910;2023-03-12T08:13:18;5.20;99.90
21712;DHT22;11017;53.552;9.910;2023-03-12T08:15:45;5.30;99.90
21712;DHT22;11017;53.552;9.910;2023-03-12T08:18:12;5.60;99.90
21712;DHT22;11017;53.552;9.910;2023-03-12T08:20:39;5.60;99.90
21712;DHT22;11017;53.552;9.910;2023-03-12T08:23:06;5.20;99.90
21712;DHT22;11017;53.552;9.910;2023-03-12T08:25:34;5.00;99.90
21712;DHT22;11017;53.552;9.910;2023-03-12T08:28:01;4.80;99.90
21712;DHT22;11017;53.552;9.910;2023-03-12T08:30:29;5.00;99.90
21712;DHT22;11017;53.552;9.910;2023-03-12T08:32:56;5.10;99.90
21712;DHT22;11017;53.552;9.910;2023-03-12T08:35:23;5.10;99.90
21712;DHT22;11017;53.552;9.910;2023-03-12T08:37:50;4.80;99.90
21712;DHT22;11017;53.552;9.910;2023-03-12T08:40:17;4.60;99.90
21712;DHT22;11017;53.552;9.910;2023-03-12T08:42:45;4.50;99.90
21712;DHT22;11017;53.552;9.910;2023-03-12T08:45:12;4.80;99.90
21712;DHT22;11017;53.552;9.910;2023-03-12T08:47:40;5.00;99.90
21712;DHT22;11017;53.552;9.910;2023-03-12T08:50:09;5.20;99.90
21712;DHT22;11017;53.552;9.910;2023-03-12T08:52:37;5.50;99.90
21712;DHT22;11017;53.552;9.910;2023-03-12T08:55:04;5.60;99.90
21712;DHT22;11017;53.552;9.910;2023-03-12T08:57:32;5.50;99.90
21712;DHT22;11017;53.552;9.910;2023-03-12T09:00:00;5.20;99.90
21712;DHT22;11017;53.552;9.910;2023-03-12T09:02:29;5.20;99.90
21712;DHT22;11017;53.552;9.910;2023-03-12T09:04:56;5.20;99.90
21712;DHT22;11017;53.552;9.910;2023-03-12T09:07:23;5.00;99.90
21712;DHT22;11017;53.552;9.910;2023-03-12T09:09:50;5.00;99.90
21712;DHT22;11017;53.552;9.910;2023-03-12T09:12:17;5.10;99.90
21712;DHT22;11017;53.552;9.910;2023-03-12T09:14:44;5.20;99.90
21712;DHT22;11017;53.552;9.910;2023-03-12T09:17:12;5.40;99.90
21712;DHT22;11017;53.552;9.910;2023-03-12T09:19:39;5.40;99.90
21712;DHT22;11017;53.552;9.910;2023-03-12T09:22:06;5.70;99.90
21712;DHT22;11017;53.552;9.910;2023-03-12T09:24:33;5.90;99.90
21712;DHT22;11017;53.552;9.910;2023-03-12T09:27:00;5.70;99.90
21712;DHT22;11017;53.552;9.910;2023-03-12T09:29:28;5.80;99.90
21712;DHT22;11017;53.552;9.910;2023-03-12T09:31:55;6.10;99.90
21712;DHT22;11017;53.552;9.910;2023-03-12T09:34:24;6.30;99.90
21712;DHT22;11017;53.552;9.910;2023-03-12T09:36:51;6.40;99.90
21712;DHT22;11017;53.552;9.910;2023-03-12T09:39:18;6.20;99.90
21712;DHT22;11017;53.552;9.910;2023-03-12T09:41:46;6.00;99.90
21712;DHT22;11017;53.552;9.910;2023-03-12T09:44:17;6.00;99.90
21712;DHT22;11017;53.552;9.910;2023-03-12T09:46:48;6.00;99.90
21712;DHT22;11017;53.552;9.910;2023-03-12T09:49:18;5.90;99.90
21712;DHT22;11017;53.552;9.910;2023-03-12T09:51:50;6.40;99.90
21712;DHT22;11017;53.552;9.910;2023-03-12T09:54:25;6.30;99.90
21712;DHT22;11017;53.552;9.910;2023-03-12T09:56:57;6.30;99.90
21712;DHT22;11017;53.552;9.910;2023-03-12T09:59:26;6.10;99.90
21712;DHT22;11017;53.552;9.910;2023-03-12T10:01:56;6.20;99.90
21712;DHT22;11017;53.552;9.910;2023-03-12T10:04:32;6.20;99.90
21712;DHT22;11017;53.552;9.910;2023-03-12T10:07:06;6.90;99.90
21712;DHT22;11017;53.552;9.910;2023-03-12T10:09:47;7.60;99.90
21712;DHT22;11017;53.552;9.910;2023-03-12T10:12:22;7.80;99.90
21712;DHT22;11017;53.552;9.910;2023-03-12T10:15:01;7.40;99.90
21712;DHT22;11017;53.552;9.910;2023-03-12T10:17:42;7.30;99.90
21712;DHT22;11017;53.552;9.910;2023-03-12T10:23:20;7.40;99.90
21712;DHT22;11017;53.552;9.910;2023-03-12T10:25:52;8.70;99.90
21712;DHT22;11017;53.552;9.910;2023-03-12T10:28:23;8.80;99.90
21712;DHT22;11017;53.552;9.910;2023-03-12T10:30:55;9.20;99.90
21712;DHT22;11017;53.552;9.910;2023-03-12T10:33:27;8.50;99.90
21712;DHT22;11017;53.552;9.910;2023-03-12T10:35:59;8.10;99.90
21712;DHT22;11017;53.552;9.910;2023-03-12T10:38:29;7.70;99.90
21712;DHT22;11017;53.552;9.910;2023-03-12T10:40:56;7.80;99.90
21712;DHT22;11017;53.552;9.910;2023-03-12T10:43:23;7.40;99.90
21712;DHT22;11017;53.552;9.910;2023-03-12T10:45:56;7.70;99.90
21712;DHT22;11017;53.552;9.910;2023-03-12T10:48:27;7.90;99.90
21712;DHT22;11017;53.552;9.910;2023-03-12T10:51:01;7.50;99.90
21712;DHT22;11017;53.552;9.910;2023-03-12T10:53:31;7.30;99.90
21712;DHT22;11017;53.552;9.910;2023-03-12T10:56:04;7.20;99.90
21712;DHT22;11017;53.552;9.910;2023-03-12T10:58:34;7.60;99.90
21712;DHT22;11017;53.552;9.910;2023-03-12T11:01:03;7.60;99.90
21712;DHT22;11017;53.552;9.910;2023-03-12T11:03:30;7.50;99.90
21712;DHT22;11017;53.552;9.910;2023-03-12T11:05:59;7.30;99.90
21712;DHT22;11017;53.552;9.910;2023-03-12T11:08:27;7.00;99.90
21712;DHT22;11017;53.552;9.910;2023-03-12T11:10:58;7.10;99.90
21712;DHT22;11017;53.552;9.910;2023-03-12T11:13:27;7.40;99.90
21712;DHT22;11017;53.552;9.910;2023-03-12T11:15:56;7.40;99.90
21712;DHT22;11017;53.552;9.910;2023-03-12T11:18:32;7.40;99.90
21712;DHT22;11017;53.552;9.910;2023-03-12T11:21:14;7.30;99.90
21712;DHT22;11017;53.552;9.910;2023-03-12T11:23:42;7.30;99.90
21712;DHT22;11017;53.552;9.910;2023-03-12T11:26:16;7.10;99.90
21712;DHT22;11017;53.552;9.910;2023-03-12T11:28:46;6.80;99.90
21712;DHT22;11017;53.552;9.910;2023-03-12T11:31:20;6.60;99.90
21712;DHT22;11017;53.552;9.910;2023-03-12T11:33:48;6.40;99.90
21712;DHT22;11017;53.552;9.910;2023-03-12T11:36:28;6.40;99.90
21712;DHT22;11017;53.552;9.910;2023-03-12T11:39:02;6.50;99.90
21712;DHT22;11017;53.552;9.910;2023-03-12T11:41:44;6.40;99.90
21712;DHT22;11017;53.552;9.910;2023-03-12T11:44:20;6.50;99.90
21712;DHT22;11017;53.552;9.910;2023-03-12T11:47:10;6.50;99.90
21712;DHT22;11017;53.552;9.910;2023-03-12T11:49:56;6.70;99.90
21712;DHT22;11017;53.552;9.910;2023-03-12T11:52:35;6.70;99.90
21712;DHT22;11017;53.552;9.910;2023-03-12T11:55:16;6.60;99.90
21712;DHT22;11017;53.552;9.910;2023-03-12T11:57:54;6.70;99.90
21712;DHT22;11017;53.552;9.910;2023-03-12T12:00:32;6.80;99.90
21712;DHT22;11017;53.552;9.910;2023-03-12T12:06:32;6.90;99.90
21712;DHT22;11017;53.552;9.910;2023-03-12T12:09:12;7.20;99.90
21712;DHT22;11017;53.552;9.910;2023-03-12T12:11:54;7.10;99.90
21712;DHT22;11017;53.552;9.910;2023-03-12T12:14:47;7.30;99.90
21712;DHT22;11017;53.552;9.910;2023-03-12T12:17:26;7.50;99.90
21712;DHT22;11017;53.552;9.910;2023-03-12T12:20:07;7.50;99.90
21712;DHT22;11017;53.552;9.910;2023-03-12T12:22:45;7.60;99.90
21712;DHT22;11017;53.552;9.910;2023-03-12T12:25:43;7.70;99.90
21712;DHT22;11017;53.552;9.910;2023-03-12T12:28:24;7.50;99.90
21712;DHT22;11017;53.552;9.910;2023-03-12T12:31:11;7.50;99.90
21712;DHT22;11017;53.552;9.910;2023-03-12T12:33:50;7.50;99.90
21712;DHT22;11017;53.552;9.910;2023-03-12T12:36:22;7.00;99.90
21712;DHT22;11017;53.552;9.910;2023-03-12T12:38:55;6.80;99.90
21712;DHT22;11017;53.552;9.910;2023-03-12T12:41:27;6.70;99.90
21712;DHT22;11017;53.552;9.910;2023-03-12T12:43:59;6.40;99.90
21712;DHT22;11017;53.552;9.910;2023-03-12T12:46:32;6.40;99.90
21712;DHT22;11017;53.552;9.910;2023-03-12T12:49:03;6.60;99.90
21712;DHT22;11017;53.552;9.910;2023-03-12T12:51:35;6.60;99.90
21712;DHT22;11017;53.552;9.910;2023-03-12T12:54:08;6.50;99.90
21712;DHT22;11017;53.552;9.910;2023-03-12T12:56:42;6.60;99.90
21712;DHT22;11017;53.552;9.910;2023-03-12T12:59:33;6.70;99.90
21712;DHT22;11017;53.552;9.910;2023-03-12T13:02:10;6.80;99.90
21712;DHT22;11017;53.552;9.910;2023-03-12T13:04:39;6.80;99.90
21712;DHT22;11017;53.552;9.910;2023-03-12T13:07:28;6.90;99.90
21712;DHT22;11017;53.552;9.910;2023-03-12T13:09:57;6.60;99.90
21712;DHT22;11017;53.552;9.910;2023-03-12T13:12:28;6.20;99.90
21712;DHT22;11017;53.552;9.910;2023-03-12T13:14:56;6.10;99.90
21712;DHT22;11017;53.552;9.910;2023-03-12T13:17:27;6.00;99.90
21712;DHT22;11017;53.552;9.910;2023-03-12T13:19:59;5.90;99.90
21712;DHT22;11017;53.552;9.910;2023-03-12T13:23:08;6.10;99.90
21712;DHT22;11017;53.552;9.910;2023-03-12T13:25:52;5.90;99.90
21712;DHT22;11017;53.552;9.910;2023-03-12T13:28:29;6.20;99.90
21712;DHT22;11017;53.552;9.910;2023-03-12T13:31:00;6.10;99.90
21712;DHT22;11017;53.552;9.910;2023-03-12T13:33:43;6.00;99.90
21712;DHT22;11017;53.552;9.910;2023-03-12T13:36:20;5.80;99.90
21712;DHT22;11017;53.552;9.910;2023-03-12T13:38:56;6.30;99.90
21712;DHT22;11017;53.552;9.910;2023-03-12T13:41:31;6.40;99.90
21712;DHT22;11017;53.552;9.910;2023-03-12T13:43:58;6.50;99.90
21712;DHT22;11017;53.552;9.910;2023-03-12T13:46:43;6.40;99.90
21712;DHT22;11017;53.552;9.910;2023-03-12T13:49:17;6.10;99.90
21712;DHT22;11017;53.552;9.910;2023-03-12T13:51:53;5.90;99.90
21712;DHT22;11017;53.552;9.910;2023-03-12T13:54:26;5.70;99.90
21712;DHT22;11017;53.552;9.910;2023-03-12T13:56:56;5.50;99.90
21712;DHT22;11017;53.552;9.910;2023-03-12T13:59:25;5.10;99.90
21712;DHT22;11017;53.552;9.910;2023-03-12T14:01:56;5.10;99.90
21712;DHT22;11017;53.552;9.910;2023-03-12T14:04:31;5.10;99.90
21712;DHT22;11017;53.552;9.910;2023-03-12T14:07:20;5.30;99.90
21712;DHT22;11017;53.552;9.910;2023-03-12T14:09:59;5.20;99.90
21712;DHT22;11017;53.552;9.910;2023-03-12T14:12:32;5.10;99.90
21712;DHT22;11017;53.552;9.910;2023-03-12T14:15:07;5.40;99.90
21712;DHT22;11017;53.552;9.910;2023-03-12T14:17:38;5.30;99.90
21712;DHT22;11017;53.552;9.910;2023-03-12T14:20:14;5.40;99.90
21712;DHT22;11017;53.552;9.910;2023-03-12T14:22:43;5.00;99.90
21712;DHT22;11017;53.552;9.910;2023-03-12T14:25:19;5.10;99.90
21712;DHT22;11017;53.552;9.910;2023-03-12T14:27:48;5.10;99.90
21712;DHT22;11017;53.552;9.910;2023-03-12T14:30:20;5.00;99.90
21712;DHT22;11017;53.552;9.910;2023-03-12T14:32:51;5.00;99.90
21712;DHT22;11017;53.552;9.910;2023-03-12T14:35:22;5.00;99.90
21712;DHT22;11017;53.552;9.910;2023-03-12T14:37:55;5.10;99.90
21712;DHT22;11017;53.552;9.910;2023-03-12T14:40:37;5.30;99.90
21712;DHT22;11017;53.552;9.910;2023-03-12T14:43:22;5.40;99.90
21712;DHT22;11017;53.552;9.910;2023-03-12T14:45:52;5.10;99.90
21712;DHT22;11017;53.552;9.910;2023-03-12T14:48:20;5.00;99.90
21712;DHT22;11017;53.552;9.910;2023-03-12T14:50:49;4.80;99.90
21712;DHT22;11017;53.552;9.910;2023-03-12T14:53:19;4.80;99.90
21712;DHT22;11017;53.552;9.910;2023-03-12T14:56:01;4.70;99.90
21712;DHT22;11017;53.552;9.910;2023-03-12T14:58:30;4.70;99.90
21712;DHT22;11017;53.552;9.910;2023-03-12T15:00:59;4.90;99.90
21712;DHT22;11017;53.552;9.910;2023-03-12T15:03:28;4.70;99.90
21712;DHT22;11017;53.552;9.910;2023-03-12T15:05:57;4.50;99.90
21712;DHT22;11017;53.552;9.910;2023-03-12T15:08:24;4.50;99.90
21712;DHT22;11017;53.552;9.910;2023-03-12T15:10:53;4.50;99.90
21712;DHT22;11017;53.552;9.910;2023-03-12T15:13:21;4.50;99.90
21712;DHT22;11017;53.552;9.910;2023-03-12T15:15:51;4.50;99.90
21712;DHT22;11017;53.552;9.910;2023-03-12T15:18:23;4.50;99.90
21712;DHT22;11017;53.552;9.910;2023-03-12T15:20:51;4.40;99.90
21712;DHT22;11017;53.552;9.910;2023-03-12T15:23:21;4.30;99.90
21712;DHT22;11017;53.552;9.910;2023-03-12T15:26:13;4.30;99.90
21712;DHT22;11017;53.552;9.910;2023-03-12T15:28:41;4.40;99.90
21712;DHT22;11017;53.552;9.910;2023-03-12T15:31:10;4.30;99.90
21712;DHT22;11017;53.552;9.910;2023-03-12T15:33:39;4.30;99.90
21712;DHT22;11017;53.552;9.910;2023-03-12T15:36:22;4.00;99.90
21712;DHT22;11017;53.552;9.910;2023-03-12T15:38:52;4.20;99.90
21712;DHT22;11017;53.552;9.910;2023-03-12T15:41:22;4.40;99.90
21712;DHT22;11017;53.552;9.910;2023-03-12T15:43:53;4.50;99.90
21712;DHT22;11017;53.552;9.910;2023-03-12T15:46:21;4.40;99.90
21712;DHT22;11017;53.552;9.910;2023-03-12T15:48:50;4.30;99.90
21712;DHT22;11017;53.552;9.910;2023-03-12T15:51:36;4.50;99.90
21712;DHT22;11017;53.552;9.910;2023-03-12T15:54:23;4.30;99.90
21712;DHT22;11017;53.552;9.910;2023-03-12T15:56:50;4.40;99.90
21712;DHT22;11017;53.552;9.910;2023-03-12T15:59:22;4.40;99.90
21712;DHT22;11017;53.552;9.910;2023-03-12T16:01:50;4.50;99.90
21712;DHT22;11017;53.552;9.910;2023-03-12T16:04:18;4.50;99.90
21712;DHT22;11017;53.552;9.910;2023-03-12T16:06:46;4.50;99.90
21712;DHT22;11017;53.552;9.910;2023-03-12T16:09:18;4.50;99.90
21712;DHT22;11017;53.552;9.910;2023-03-12T16:11:47;4.70;99.90